In Rescue
 
Open Full Screen Window  High Contrast Mode
Wind Gusting 00 knots
04
September 18, 2020 8:53 PM CDT
Weather Information
Wind Direction
  110 °
Wind Speed
  04 kt (5 mph)
Wind Gust
  00 kt (0 mph)
Altimeter
30.29 in
Visibility
10 SM
Temperature
07° C
45° F
Dewpoint
02° C
36° F
Humidity
71%
1hr Rain Fall
00.00 in.
24hr Rain Fall
00.00 in.
Sky Condition
Clear
VFR

METAR KMJQ 190153Z AUTO 11004KT 10SM CLR 07/02 A3029 RMK AO2 PWINO

FAA Disclaimer: The data displayed is for advisory purposes only and is not to be used for flight planning or operations.